createdAt,value
2023-02-22T00:00:29.245Z,1.73
2023-02-22T00:02:59.951Z,1.67
2023-02-22T00:05:31.759Z,1.38
2023-02-22T00:07:58.634Z,1.42
2023-02-22T00:10:26.120Z,1.65
2023-02-22T00:12:54.599Z,2.10
2023-02-22T00:15:23.458Z,2.00
2023-02-22T00:17:49.992Z,1.88
2023-02-22T00:20:18.811Z,2.38
2023-02-22T00:22:46.988Z,1.88
2023-02-22T00:25:17.346Z,1.80
2023-02-22T00:27:44.335Z,1.60
2023-02-22T00:30:19.195Z,2.05
2023-02-22T00:32:47.260Z,2.05
2023-02-22T00:35:15.311Z,1.80
2023-02-22T00:37:41.985Z,1.90
2023-02-22T00:40:10.299Z,1.67
2023-02-22T00:42:37.146Z,1.67
2023-02-22T00:45:05.404Z,1.95
2023-02-22T00:47:31.993Z,1.50
2023-02-22T00:49:58.700Z,2.47
2023-02-22T00:52:25.247Z,1.90
2023-02-22T00:54:51.777Z,1.70
2023-02-22T00:57:19.191Z,1.65
2023-02-22T00:59:45.781Z,2.10
2023-02-22T01:02:12.417Z,1.88
2023-02-22T01:04:39.217Z,1.75
2023-02-22T01:07:06.069Z,2.10
2023-02-22T01:09:32.809Z,1.88
2023-02-22T01:11:59.335Z,2.15
2023-02-22T01:14:27.016Z,1.83
2023-02-22T01:16:54.568Z,1.67
2023-02-22T01:19:22.543Z,1.92
2023-02-22T01:21:50.008Z,1.77
2023-02-22T01:24:17.496Z,1.70
2023-02-22T01:26:48.899Z,2.00
2023-02-22T01:29:17.004Z,1.30
2023-02-22T01:31:44.266Z,2.22
2023-02-22T01:34:11.298Z,1.58
2023-02-22T01:36:37.866Z,1.75
2023-02-22T01:39:04.357Z,1.80
2023-02-22T01:41:30.991Z,1.80
2023-02-22T01:43:57.569Z,2.00
2023-02-22T01:46:26.363Z,2.08
2023-02-22T01:49:01.749Z,1.73
2023-02-22T01:51:32.371Z,1.60
2023-02-22T01:54:08.687Z,1.55
2023-02-22T01:56:38.550Z,1.85
2023-02-22T01:59:09.220Z,1.70
2023-02-22T02:01:37.339Z,1.48
2023-02-22T02:04:07.969Z,1.70
2023-02-22T02:06:36.229Z,1.85
2023-02-22T02:09:22.717Z,1.80
2023-02-22T02:11:49.908Z,1.70
2023-02-22T02:14:16.756Z,1.60
2023-02-22T02:16:48.967Z,1.73
2023-02-22T02:19:28.009Z,1.75
2023-02-22T02:22:14.758Z,2.10
2023-02-22T02:25:00.166Z,2.20
2023-02-22T02:28:02.801Z,1.58
2023-02-22T02:30:39.235Z,1.63
2023-02-22T02:33:33.777Z,1.70
2023-02-22T02:36:04.652Z,1.55
2023-02-22T02:38:41.572Z,2.08
2023-02-22T02:41:25.858Z,1.38
2023-02-22T02:44:06.175Z,1.80
2023-02-22T02:46:32.769Z,1.60
2023-02-22T02:49:03.173Z,1.60
2023-02-22T02:51:34.635Z,1.60
2023-02-22T02:54:02.025Z,1.92
2023-02-22T02:56:28.593Z,1.60
2023-02-22T02:58:55.698Z,1.77
2023-02-22T03:01:46.194Z,1.92
2023-02-22T03:04:24.995Z,1.83
2023-02-22T03:07:19.099Z,2.13
2023-02-22T03:10:13.268Z,2.30
2023-02-22T03:12:50.937Z,1.83
2023-02-22T03:15:32.607Z,1.88
2023-02-22T03:18:09.136Z,2.00
2023-02-22T03:20:46.625Z,2.00
2023-02-22T03:23:19.013Z,2.20
2023-02-22T03:25:52.348Z,1.90
2023-02-22T03:28:20.335Z,1.52
2023-02-22T03:31:10.357Z,1.85
2023-02-22T03:33:41.002Z,2.05
2023-02-22T03:36:12.418Z,1.83
2023-02-22T03:38:40.516Z,1.67
2023-02-22T03:41:08.498Z,2.08
2023-02-22T03:43:39.255Z,2.33
2023-02-22T03:46:06.954Z,1.88
2023-02-22T03:48:57.785Z,1.80
2023-02-22T03:51:24.956Z,1.80
2023-02-22T03:53:52.241Z,2.08
2023-02-22T03:56:23.003Z,1.83
2023-02-22T03:58:50.033Z,2.00
2023-02-22T04:01:17.381Z,1.70
2023-02-22T04:03:44.361Z,2.00
2023-02-22T04:06:11.161Z,1.50
2023-02-22T04:08:37.916Z,1.50
2023-02-22T04:11:04.779Z,1.85
2023-02-22T04:13:31.370Z,1.48
2023-02-22T04:15:57.963Z,1.98
2023-02-22T04:18:24.659Z,2.20
2023-02-22T04:20:51.723Z,1.95
2023-02-22T04:23:18.409Z,2.05
2023-02-22T04:25:44.896Z,1.48
2023-02-22T04:28:11.619Z,1.98
2023-02-22T04:30:38.261Z,2.03
2023-02-22T04:33:05.036Z,1.95
2023-02-22T04:35:33.758Z,1.63
2023-02-22T04:38:02.539Z,1.70
2023-02-22T04:40:29.139Z,1.80
2023-02-22T04:42:55.722Z,2.20
2023-02-22T04:45:22.688Z,2.50
2023-02-22T04:47:49.194Z,2.42
2023-02-22T04:50:16.942Z,2.47
2023-02-22T04:52:43.499Z,2.22
2023-02-22T04:55:10.266Z,2.20
2023-02-22T04:57:36.849Z,2.22
2023-02-22T05:00:05.645Z,2.20
2023-02-22T05:02:32.368Z,2.22
2023-02-22T05:04:58.937Z,2.33
2023-02-22T05:07:25.669Z,2.55
2023-02-22T05:09:52.229Z,3.58
2023-02-22T05:12:18.784Z,3.33
2023-02-22T05:14:45.329Z,2.45
2023-02-22T05:17:11.928Z,3.13
2023-02-22T05:19:38.644Z,2.40
2023-02-22T05:22:05.723Z,2.47
2023-02-22T05:24:32.581Z,2.35
2023-02-22T05:26:59.310Z,2.53
2023-02-22T05:29:25.882Z,2.63
2023-02-22T05:31:52.493Z,2.72
2023-02-22T05:34:19.171Z,2.63
2023-02-22T05:36:46.506Z,2.72
2023-02-22T05:39:13.177Z,2.40
2023-02-22T05:41:39.741Z,3.03
2023-02-22T05:44:06.416Z,3.00
2023-02-22T05:46:33.172Z,2.83
2023-02-22T05:48:59.723Z,2.70
2023-02-22T05:51:27.086Z,3.40
2023-02-22T05:53:53.657Z,3.17
2023-02-22T05:56:30.594Z,3.10
2023-02-22T05:58:58.438Z,3.53
2023-02-22T06:01:25.353Z,3.25
2023-02-22T06:03:52.597Z,3.03
2023-02-22T06:06:22.166Z,3.08
2023-02-22T06:08:49.461Z,3.88
2023-02-22T06:11:16.383Z,3.30
2023-02-22T06:13:49.828Z,3.50
2023-02-22T06:16:16.421Z,3.42
2023-02-22T06:18:43.114Z,4.05
2023-02-22T06:21:10.052Z,3.28
2023-02-22T06:23:36.643Z,3.38
2023-02-22T06:26:03.228Z,3.40
2023-02-22T06:28:29.787Z,3.33
2023-02-22T06:30:56.360Z,3.00
2023-02-22T06:33:22.945Z,2.70
2023-02-22T06:35:49.548Z,3.17
2023-02-22T06:38:23.743Z,3.30
2023-02-22T06:40:50.838Z,2.50
2023-02-22T06:43:17.900Z,2.58
2023-02-22T06:45:44.470Z,2.90
2023-02-22T06:48:11.148Z,3.10
2023-02-22T06:50:37.779Z,2.65
2023-02-22T06:53:04.853Z,2.60
2023-02-22T06:55:33.742Z,2.78
2023-02-22T06:58:00.582Z,3.17
2023-02-22T07:00:28.998Z,2.78
2023-02-22T07:02:56.467Z,2.67
2023-02-22T07:05:24.058Z,2.88
2023-02-22T07:07:55.362Z,2.55
2023-02-22T07:10:27.827Z,3.13
2023-02-22T07:12:54.395Z,2.60
2023-02-22T07:15:23.621Z,4.90
2023-02-22T07:17:51.485Z,4.22
2023-02-22T07:20:20.827Z,3.38
2023-02-22T07:25:14.341Z,2.60
2023-02-22T07:27:42.614Z,2.65
2023-02-22T07:30:16.185Z,2.70
2023-02-22T07:32:43.778Z,2.95
2023-02-22T07:35:25.239Z,2.17
2023-02-22T07:37:54.072Z,2.70
2023-02-22T07:40:22.782Z,2.53
2023-02-22T07:43:10.376Z,2.45
2023-02-22T07:45:37.090Z,2.30
2023-02-22T07:48:05.303Z,2.83
2023-02-22T07:50:33.349Z,2.85
2023-02-22T07:53:01.696Z,2.30
2023-02-22T07:55:30.248Z,2.60
2023-02-22T07:57:59.257Z,2.38
2023-02-22T08:00:34.106Z,1.98
2023-02-22T08:03:02.651Z,2.10
2023-02-22T08:05:30.657Z,2.55
2023-02-22T08:07:57.415Z,2.17
2023-02-22T08:10:25.786Z,2.38
2023-02-22T08:12:53.106Z,2.50
2023-02-22T08:15:25.564Z,2.00
2023-02-22T08:17:53.549Z,1.90
2023-02-22T08:20:20.683Z,2.30
2023-02-22T08:22:47.721Z,2.58
2023-02-22T08:25:16.094Z,2.08
2023-02-22T08:27:43.960Z,2.13
2023-02-22T08:30:15.221Z,2.10
2023-02-22T08:32:41.959Z,1.83
2023-02-22T08:35:08.913Z,2.13
2023-02-22T08:37:35.477Z,1.80
2023-02-22T08:40:02.094Z,1.90
2023-02-22T08:42:28.633Z,2.20
2023-02-22T08:44:55.126Z,2.28
2023-02-22T08:47:21.701Z,2.08
2023-02-22T08:49:48.352Z,2.40
2023-02-22T08:52:14.917Z,2.20
2023-02-22T08:54:41.504Z,1.90
2023-02-22T08:57:07.982Z,2.10
2023-02-22T08:59:34.475Z,1.83
2023-02-22T09:02:02.807Z,2.28
2023-02-22T09:04:29.370Z,2.67
2023-02-22T09:06:55.851Z,2.10
2023-02-22T09:09:22.538Z,2.03
2023-02-22T09:11:50.480Z,1.85
2023-02-22T09:16:45.713Z,1.90
2023-02-22T09:19:12.308Z,2.10
2023-02-22T09:21:40.310Z,2.00
2023-02-22T09:24:08.793Z,1.80
2023-02-22T09:26:39.385Z,1.98
2023-02-22T09:29:09.788Z,2.22
2023-02-22T09:31:40.585Z,2.10
2023-02-22T09:34:13.964Z,1.88
2023-02-22T09:36:44.135Z,1.83
2023-02-22T09:39:11.379Z,1.88
2023-02-22T09:42:12.136Z,1.85
2023-02-22T09:44:44.627Z,2.00
2023-02-22T09:47:18.158Z,1.60
2023-02-22T09:49:57.551Z,1.58
2023-02-22T09:52:27.592Z,1.40
2023-02-22T09:55:23.306Z,1.25
2023-02-22T09:57:51.610Z,1.50
2023-02-22T10:00:41.213Z,1.55
2023-02-22T10:03:50.459Z,1.40
2023-02-22T10:08:45.119Z,1.40
2023-02-22T10:11:33.354Z,1.20
2023-02-22T10:14:37.373Z,1.38
2023-02-22T10:17:39.388Z,1.10
2023-02-22T10:20:25.371Z,1.13
2023-02-22T10:22:57.800Z,1.00
2023-02-22T10:25:27.771Z,1.10
2023-02-22T10:28:03.881Z,1.27
2023-02-22T10:30:46.209Z,1.00
2023-02-22T10:33:17.461Z,1.40
2023-02-22T10:35:46.855Z,1.02
2023-02-22T10:38:18.262Z,0.82
2023-02-22T10:40:49.719Z,1.48
2023-02-22T10:43:16.291Z,1.05
2023-02-22T10:45:43.075Z,1.40
2023-02-22T10:48:13.875Z,1.50
2023-02-22T10:50:42.601Z,1.20
2023-02-22T10:53:10.939Z,0.90
2023-02-22T10:56:07.781Z,0.90
2023-02-22T10:58:47.931Z,0.95
2023-02-22T11:01:20.597Z,1.25
2023-02-22T11:03:57.762Z,1.00
2023-02-22T11:06:24.339Z,1.10
2023-02-22T11:08:52.130Z,1.00
2023-02-22T11:11:27.275Z,1.13
2023-02-22T11:13:55.521Z,1.00
2023-02-22T11:16:31.382Z,0.90
2023-02-22T11:19:16.320Z,0.90
2023-02-22T11:21:43.341Z,1.10
2023-02-22T11:24:14.735Z,1.00
2023-02-22T11:26:49.583Z,1.05
2023-02-22T11:29:22.729Z,0.80
2023-02-22T11:31:49.714Z,0.98
2023-02-22T11:34:36.535Z,1.05
2023-02-22T11:37:29.469Z,0.93
2023-02-22T11:40:07.999Z,1.48
2023-02-22T11:42:34.524Z,0.80
2023-02-22T11:45:23.701Z,0.98
2023-02-22T11:47:53.423Z,1.20
2023-02-22T11:50:38.276Z,0.70
2023-02-22T11:53:30.824Z,1.08
2023-02-22T11:56:35.762Z,0.90
2023-02-22T11:59:11.543Z,1.00
2023-02-22T12:01:38.003Z,0.85
2023-02-22T12:04:39.297Z,0.95
2023-02-22T12:07:24.175Z,1.00
2023-02-22T12:10:35.792Z,1.05
2023-02-22T12:13:17.795Z,0.90
2023-02-22T12:16:14.266Z,1.00
2023-02-22T12:18:56.214Z,0.90
2023-02-22T12:21:24.544Z,0.95
2023-02-22T12:23:56.916Z,0.80
2023-02-22T12:26:33.976Z,1.00
2023-02-22T12:29:18.257Z,0.93
2023-02-22T12:31:57.608Z,1.00
2023-02-22T12:37:24.788Z,1.10
2023-02-22T12:39:53.778Z,0.80
2023-02-22T12:42:45.138Z,0.90
2023-02-22T12:45:17.239Z,1.23
2023-02-22T12:47:51.406Z,0.90
2023-02-22T12:50:23.588Z,0.95
2023-02-22T12:52:53.631Z,1.48
2023-02-22T12:55:21.995Z,0.82
2023-02-22T12:58:27.660Z,2.00
2023-02-22T13:01:01.460Z,1.30
2023-02-22T13:03:31.720Z,1.20
2023-02-22T13:06:28.427Z,0.80
2023-02-22T13:09:05.476Z,0.90
2023-02-22T13:11:32.184Z,0.93
2023-02-22T13:14:07.899Z,0.70
2023-02-22T13:16:59.252Z,0.80
2023-02-22T13:20:01.541Z,0.70
2023-02-22T13:23:00.295Z,0.80
2023-02-22T13:25:41.981Z,1.13
2023-02-22T13:28:40.190Z,0.90
2023-02-22T13:31:25.512Z,0.82
2023-02-22T13:34:13.149Z,0.85
2023-02-22T13:37:02.416Z,0.45
2023-02-22T13:40:16.884Z,0.95
2023-02-22T13:43:05.024Z,0.88
2023-02-22T13:45:47.110Z,0.60
2023-02-22T13:48:35.181Z,0.75
2023-02-22T13:51:06.756Z,0.80
2023-02-22T13:54:00.189Z,0.70
2023-02-22T13:56:27.152Z,0.80
2023-02-22T13:59:00.970Z,0.68
2023-02-22T14:01:48.684Z,0.73
2023-02-22T14:04:27.153Z,0.60
2023-02-22T14:06:57.467Z,0.90
2023-02-22T14:09:48.360Z,0.50
2023-02-22T14:12:30.506Z,0.70
2023-02-22T14:15:28.608Z,0.70
2023-02-22T14:18:07.501Z,0.60
2023-02-22T14:20:36.942Z,0.50
2023-02-22T14:23:40.395Z,0.55
2023-02-22T14:26:19.323Z,0.57
2023-02-22T14:29:10.877Z,0.60
2023-02-22T14:31:43.575Z,0.80
2023-02-22T14:34:21.761Z,0.82
2023-02-22T14:36:55.116Z,0.60
2023-02-22T14:39:34.471Z,0.63
2023-02-22T14:44:56.960Z,0.60
2023-02-22T14:47:41.152Z,0.80
2023-02-22T14:50:15.149Z,0.80
2023-02-22T14:52:43.593Z,0.60
2023-02-22T14:55:25.773Z,0.70
2023-02-22T14:58:18.912Z,0.80
2023-02-22T15:00:52.813Z,0.80
2023-02-22T15:03:29.312Z,1.67
2023-02-22T15:05:59.811Z,0.80
2023-02-22T15:08:28.718Z,0.80
2023-02-22T15:10:55.298Z,0.70
2023-02-22T15:13:27.861Z,0.60
2023-02-22T15:16:00.396Z,0.68
2023-02-22T15:18:32.748Z,0.65
2023-02-22T15:21:13.403Z,0.50
2023-02-22T15:23:44.832Z,0.60
2023-02-22T15:26:26.094Z,0.60
2023-02-22T15:28:57.187Z,0.73
2023-02-22T15:31:33.073Z,0.60
2023-02-22T15:34:14.942Z,0.60
2023-02-22T15:36:43.241Z,0.63
2023-02-22T15:39:33.284Z,0.80
2023-02-22T15:42:23.139Z,0.90
2023-02-22T15:44:52.632Z,0.85
2023-02-22T15:50:15.374Z,0.90
2023-02-22T15:53:03.325Z,1.13
2023-02-22T15:55:34.812Z,1.42
2023-02-22T15:58:23.816Z,1.50
2023-02-22T16:01:05.663Z,0.80
2023-02-22T16:03:39.066Z,0.82
2023-02-22T16:06:10.188Z,1.13
2023-02-22T16:08:54.340Z,0.93
2023-02-22T16:11:31.317Z,1.33
2023-02-22T16:14:01.752Z,0.93
2023-02-22T16:16:34.582Z,0.90
2023-02-22T16:19:19.884Z,0.98
2023-02-22T16:22:02.954Z,1.10
2023-02-22T16:24:32.532Z,1.08
2023-02-22T16:29:43.053Z,1.10
2023-02-22T16:32:09.837Z,0.88
2023-02-22T16:34:36.540Z,1.30
2023-02-22T16:37:03.449Z,1.00
2023-02-22T16:39:31.608Z,1.00
2023-02-22T16:41:59.890Z,1.13
2023-02-22T16:44:27.242Z,1.00
2023-02-22T16:46:55.958Z,1.50
2023-02-22T16:49:23.533Z,1.20
2023-02-22T16:51:59.527Z,1.20
2023-02-22T16:54:34.290Z,1.00
2023-02-22T16:57:02.417Z,1.00
2023-02-22T16:59:33.010Z,1.08
2023-02-22T17:01:59.619Z,1.10
2023-02-22T17:04:26.485Z,1.48
2023-02-22T17:06:53.268Z,1.20
2023-02-22T17:09:20.233Z,1.25
2023-02-22T17:11:49.496Z,1.20
2023-02-22T17:14:24.372Z,0.93
2023-02-22T17:16:51.285Z,0.95
2023-02-22T17:19:22.195Z,1.15
2023-02-22T17:21:49.479Z,0.98
2023-02-22T17:24:23.074Z,1.20
2023-02-22T17:26:50.228Z,1.00
2023-02-22T17:29:17.870Z,0.82
2023-02-22T17:31:44.834Z,1.27
2023-02-22T17:34:11.379Z,1.77
2023-02-22T17:36:38.084Z,1.33
2023-02-22T17:39:05.976Z,1.17
2023-02-22T17:41:32.562Z,1.10
2023-02-22T17:43:59.209Z,1.52
2023-02-22T17:46:25.900Z,1.30
2023-02-22T17:48:55.562Z,1.00
2023-02-22T17:51:23.533Z,1.45
2023-02-22T17:53:50.821Z,1.45
2023-02-22T17:56:18.964Z,1.75
2023-02-22T17:58:50.501Z,1.25
2023-02-22T18:01:21.559Z,1.13
2023-02-22T18:03:48.327Z,1.10
2023-02-22T18:06:17.933Z,1.20
2023-02-22T18:08:44.743Z,1.05
2023-02-22T18:11:11.298Z,1.10
2023-02-22T18:13:37.877Z,1.50
2023-02-22T18:16:05.594Z,1.25
2023-02-22T18:18:32.696Z,1.50
2023-02-22T18:21:00.003Z,1.35
2023-02-22T18:23:28.434Z,1.55
2023-02-22T18:26:09.628Z,1.23
2023-02-22T18:28:36.946Z,1.55
2023-02-22T18:31:14.607Z,1.35
2023-02-22T18:33:45.334Z,1.80
2023-02-22T18:36:12.636Z,1.50
2023-02-22T18:38:42.875Z,1.30
2023-02-22T18:41:17.562Z,1.30
2023-02-22T18:43:46.325Z,1.15
2023-02-22T18:46:14.292Z,1.15
2023-02-22T18:48:41.000Z,1.48
2023-02-22T18:51:10.303Z,1.85
2023-02-22T18:53:38.378Z,1.70
2023-02-22T18:56:07.212Z,1.30
2023-02-22T18:58:34.025Z,1.30
2023-02-22T19:01:01.639Z,1.40
2023-02-22T19:03:28.966Z,1.50
2023-02-22T19:05:56.263Z,1.63
2023-02-22T19:08:22.857Z,1.40
2023-02-22T19:10:49.787Z,1.60
2023-02-22T19:13:16.801Z,1.30
2023-02-22T19:15:43.391Z,1.85
2023-02-22T19:18:10.005Z,1.80
2023-02-22T19:20:36.662Z,1.63
2023-02-22T19:23:03.202Z,1.70
2023-02-22T19:25:29.778Z,1.30
2023-02-22T19:27:56.887Z,1.42
2023-02-22T19:30:25.044Z,1.58
2023-02-22T19:32:51.765Z,1.67
2023-02-22T19:35:27.380Z,1.80
2023-02-22T19:37:55.307Z,1.60
2023-02-22T19:40:23.173Z,1.90
2023-02-22T19:42:53.546Z,1.92
2023-02-22T19:45:20.666Z,1.35
2023-02-22T19:47:48.682Z,1.60
2023-02-22T19:50:16.426Z,1.65
2023-02-22T19:52:43.045Z,1.73
2023-02-22T19:55:12.681Z,2.13
2023-02-22T19:57:46.377Z,1.80
2023-02-22T20:00:14.088Z,1.60
2023-02-22T20:02:41.053Z,2.08
2023-02-22T20:05:11.961Z,1.70
2023-02-22T20:07:38.742Z,1.90
2023-02-22T20:10:07.160Z,1.60
2023-02-22T20:12:33.780Z,1.70
2023-02-22T20:15:03.283Z,1.67
2023-02-22T20:19:56.316Z,1.67
2023-02-22T20:22:22.938Z,1.88
2023-02-22T20:24:49.740Z,1.70
2023-02-22T20:27:16.563Z,1.70
2023-02-22T20:29:43.107Z,2.22
2023-02-22T20:32:12.343Z,2.00
2023-02-22T20:34:39.050Z,1.83
2023-02-22T20:37:05.667Z,2.13
2023-02-22T20:39:32.348Z,2.40
2023-02-22T20:42:02.797Z,1.58
2023-02-22T20:44:29.458Z,1.80
2023-02-22T20:46:56.055Z,1.98
2023-02-22T20:49:22.899Z,1.77
2023-02-22T20:51:49.484Z,1.95
2023-02-22T20:54:16.996Z,1.67
2023-02-22T20:56:45.258Z,1.95
2023-02-22T20:59:13.758Z,2.33
2023-02-22T21:01:40.401Z,1.70
2023-02-22T21:04:10.002Z,1.63
2023-02-22T21:09:07.296Z,2.22
2023-02-22T21:11:34.454Z,1.90
2023-02-22T21:14:02.145Z,2.10
2023-02-22T21:16:35.530Z,2.08
2023-02-22T21:19:05.012Z,1.63
2023-02-22T21:21:31.960Z,1.58
2023-02-22T21:24:01.742Z,2.40
2023-02-22T21:26:31.212Z,1.50
2023-02-22T21:29:00.501Z,1.92
2023-02-22T21:31:27.733Z,2.10
2023-02-22T21:33:56.706Z,2.30
2023-02-22T21:36:26.533Z,2.25
2023-02-22T21:38:58.108Z,1.55
2023-02-22T21:41:27.821Z,1.67
2023-02-22T21:43:56.249Z,2.03
2023-02-22T21:46:23.725Z,1.60
2023-02-22T21:48:50.546Z,1.75
2023-02-22T21:51:31.578Z,2.15
2023-02-22T21:54:08.548Z,2.05
2023-02-22T21:56:38.141Z,2.08
2023-02-22T22:01:37.148Z,2.20
2023-02-22T22:04:04.832Z,2.88
2023-02-22T22:06:33.349Z,2.42
2023-02-22T22:09:00.967Z,2.30
2023-02-22T22:11:27.799Z,2.38
2023-02-22T22:13:57.650Z,2.10
2023-02-22T22:16:26.778Z,2.75
2023-02-22T22:18:54.593Z,2.00
2023-02-22T22:21:22.862Z,2.58
2023-02-22T22:23:53.104Z,2.40
2023-02-22T22:26:20.252Z,2.55
2023-02-22T22:28:49.610Z,2.90
2023-02-22T22:31:18.471Z,2.53
2023-02-22T22:33:46.331Z,2.35
2023-02-22T22:36:14.553Z,2.33
2023-02-22T22:38:41.268Z,2.63
2023-02-22T22:41:10.147Z,2.80
2023-02-22T22:43:37.449Z,2.33
2023-02-22T22:46:06.178Z,2.70
2023-02-22T22:48:36.175Z,3.22
2023-02-22T22:51:33.561Z,2.28
2023-02-22T22:54:00.340Z,2.58
2023-02-22T22:56:27.704Z,2.40
2023-02-22T22:58:56.702Z,2.75
2023-02-22T23:01:31.822Z,2.90
2023-02-22T23:04:02.359Z,2.80
2023-02-22T23:06:33.240Z,2.65
2023-02-22T23:09:11.482Z,2.85
2023-02-22T23:11:44.832Z,2.63
2023-02-22T23:14:24.152Z,2.53
2023-02-22T23:16:53.172Z,2.80
2023-02-22T23:19:20.137Z,3.08
2023-02-22T23:21:48.062Z,2.88
2023-02-22T23:24:16.514Z,2.55
2023-02-22T23:26:48.529Z,2.58
2023-02-22T23:29:17.387Z,2.53
2023-02-22T23:31:44.368Z,3.05
2023-02-22T23:34:11.211Z,2.75
2023-02-22T23:36:44.649Z,3.58
2023-02-22T23:39:12.011Z,3.08
2023-02-22T23:41:38.566Z,2.70
2023-02-22T23:44:08.378Z,3.28
2023-02-22T23:46:36.595Z,2.85
2023-02-22T23:49:04.238Z,3.35
2023-02-22T23:51:39.369Z,2.97
2023-02-22T23:54:07.709Z,3.47
2023-02-22T23:56:35.471Z,3.25
2023-02-22T23:59:09.223Z,3.33
